• LFSB

    METAR de LFSB (émis le 2019/05/21 08:00 UTC):
    LFSB 210800Z 24015KT 9999 FEW016 BKN030 BKN083 13/10 Q1013 NOSIG

    TAF de LFSB (émis le 2019/05/21 06:21 UTC):
    LFSB 210500Z 2106/2206 26015G25KT 9999 BKN030 TEMPO 2110/2118 FEW030TCU BECMG 2118/2121 VRB03KT PROB40 TEMPO 2202/2205 4000 BR
  • LFSX

    METAR de LFSX (émis le 2019/05/21 08:00 UTC):
    LFSX 210800Z AUTO 26006KT 9999 OVC014 12/11 Q1014

    TAF de LFSX (émis le 2019/05/21 09:09 UTC):
    LFSX 210800Z 2109/2209 26008KT 9999 BKN014 BECMG 2110/2112 BKN020 TEMPO 2112/2118 SCT030TCU
  • LFSD

    METAR de LFSD (émis le 2019/05/21 08:00 UTC):
    LFSD 210800Z AUTO 34003KT 250V060 9999 SCT024 SCT030 15/10 Q1015

    TAF de LFSD (émis le 2015/06/01 00:11 UTC):
    LFSD 010600Z 0100/0124 CNL
  • LFGJ

    METAR de LFGJ (émis le 2019/05/21 08:00 UTC):
    LFGJ 210800Z AUTO 28004KT 240V320 9999 SCT018 OVC026 13/10 Q1016 NOSIG

    TAF COURT de LFGJ
    (émis le 2019/05/21 09:21 UTC):
    TAF TAF LFGJ 210800Z 2109/2118 33005KT 9999 BKN025 TEMPO 2109/2118 FEW030TCU
  • LFJL

    METAR de LFJL (émis le 2019/05/21 08:00 UTC):
    LFJL 210800Z AUTO 28014KT 8000 OVC011 12/09 Q1013 BECMG FEW035 BKN040

    TAF de LFJL (émis le 2019/05/21 07:55 UTC):
    AMD LFJL 210750Z 2107/2206 29012KT 9999 SCT012 OVC020 PROB40 TEMPO 2107/2109 4500 BR OVC006 BECMG 2109/2112 FEW035 BKN040 PROB30 TEMPO 2112/2117 FEW040TCU BECMG 2120/2123 CAVOK
  • LFST

    METAR de LFST (émis le 2019/05/21 08:00 UTC):
    LFST 210800Z AUTO 28010KT 8000 -RA BKN022/// BKN032/// BKN047/// ///TCU 13/11 Q1011 BECMG OVC020

    TAF de LFST (émis le 2019/05/21 07:00 UTC):
    AMD LFST 210756Z 2107/2206 27008KT 9999 -RA OVC020 PROB40 TEMPO 2107/2110 4000 RA BECMG 2110/2113 NSW FEW025 BKN040 TEMPO 2113/2120 -SHRA FEW030TCU BECMG 2121/2124 CAVOK